sensor_id;sensor_type;location;lat;lon;timestamp;pressure;altitude;pressure_sealevel;temperature;humidity
26192;BME280;13935;55.672;37.764;2023-02-28T00:37:13;100486.44;;;-5.33;100.00
26192;BME280;13935;55.672;37.764;2023-02-28T00:38:25;100486.16;;;-5.27;100.00
26192;BME280;13935;55.672;37.764;2023-02-28T00:39:34;100487.50;;;-5.24;100.00
26192;BME280;13935;55.672;37.764;2023-02-28T00:40:51;100483.47;;;-5.27;100.00
26192;BME280;13935;55.672;37.764;2023-02-28T00:41:59;100495.84;;;-5.36;100.00
26192;BME280;13935;55.672;37.764;2023-02-28T00:43:08;100492.63;;;-5.33;100.00
26192;BME280;13935;55.672;37.764;2023-02-28T00:44:26;100497.72;;;-5.36;100.00
26192;BME280;13935;55.672;37.764;2023-02-28T00:45:35;100493.69;;;-5.44;100.00
26192;BME280;13935;55.672;37.764;2023-02-28T00:46:49;100490.72;;;-5.37;100.00
26192;BME280;13935;55.672;37.764;2023-02-28T01:12:24;100457.56;;;-5.67;100.00
26192;BME280;13935;55.672;37.764;2023-02-28T01:13:36;100453.81;;;-5.76;100.00
26192;BME280;13935;55.672;37.764;2023-02-28T01:14:44;100450.53;;;-5.73;100.00
26192;BME280;13935;55.672;37.764;2023-02-28T01:15:57;100457.00;;;-5.74;100.00
26192;BME280;13935;55.672;37.764;2023-02-28T01:17:01;100449.47;;;-5.72;100.00
26192;BME280;13935;55.672;37.764;2023-02-28T01:56:29;100376.78;;;-5.92;100.00
26192;BME280;13935;55.672;37.764;2023-02-28T01:57:50;100363.84;;;-5.90;100.00
26192;BME280;13935;55.672;37.764;2023-02-28T01:58:59;100362.50;;;-5.93;100.00
26192;BME280;13935;55.672;37.764;2023-02-28T02:00:18;100359.84;;;-5.83;100.00
26192;BME280;13935;55.672;37.764;2023-02-28T02:01:26;100358.47;;;-6.00;100.00
26192;BME280;13935;55.672;37.764;2023-02-28T02:02:30;100363.84;;;-5.95;100.00
26192;BME280;13935;55.672;37.764;2023-02-28T02:03:35;100360.06;;;-6.04;100.00
26192;BME280;13935;55.672;37.764;2023-02-28T02:05:08;100364.66;;;-6.00;100.00
26192;BME280;13935;55.672;37.764;2023-02-28T02:06:17;100368.41;;;-6.06;100.00
26192;BME280;13935;55.672;37.764;2023-02-28T02:48:08;100315.09;;;-6.19;100.00
26192;BME280;13935;55.672;37.764;2023-02-28T02:49:47;100316.19;;;-6.30;100.00
26192;BME280;13935;55.672;37.764;2023-02-28T02:51:06;100315.94;;;-6.18;100.00
26192;BME280;13935;55.672;37.764;2023-02-28T02:52:23;100316.44;;;-6.21;100.00
26192;BME280;13935;55.672;37.764;2023-02-28T02:53:34;100305.41;;;-6.20;100.00
26192;BME280;13935;55.672;37.764;2023-02-28T02:54:46;100306.47;;;-6.35;100.00
26192;BME280;13935;55.672;37.764;2023-02-28T02:55:57;100306.25;;;-6.24;100.00
26192;BME280;13935;55.672;37.764;2023-02-28T02:57:17;100304.34;;;-6.24;100.00
26192;BME280;13935;55.672;37.764;2023-02-28T02:58:32;100313.75;;;-6.26;100.00
26192;BME280;13935;55.672;37.764;2023-02-28T02:59:44;100301.66;;;-6.14;100.00
26192;BME280;13935;55.672;37.764;2023-02-28T03:00:55;100296.56;;;-6.30;100.00
26192;BME280;13935;55.672;37.764;2023-02-28T03:02:04;100298.97;;;-6.29;100.00
26192;BME280;13935;55.672;37.764;2023-02-28T03:03:15;100297.06;;;-6.33;100.00
26192;BME280;13935;55.672;37.764;2023-02-28T03:04:30;100300.84;;;-6.24;100.00
26192;BME280;13935;55.672;37.764;2023-02-28T03:05:49;100294.41;;;-6.18;100.00
26192;BME280;13935;55.672;37.764;2023-02-28T03:06:56;100291.97;;;-6.20;100.00
26192;BME280;13935;55.672;37.764;2023-02-28T03:08:05;100289.03;;;-6.18;100.00
26192;BME280;13935;55.672;37.764;2023-02-28T03:09:13;100295.22;;;-6.23;100.00
26192;BME280;13935;55.672;37.764;2023-02-28T03:11:38;100288.47;;;-6.25;100.00
26192;BME280;13935;55.672;37.764;2023-02-28T03:12:55;100283.63;;;-6.23;100.00
26192;BME280;13935;55.672;37.764;2023-02-28T03:18:10;100276.66;;;-6.19;100.00
26192;BME280;13935;55.672;37.764;2023-02-28T03:21:20;100266.69;;;-6.09;100.00
26192;BME280;13935;55.672;37.764;2023-02-28T03:23:21;100273.69;;;-6.18;100.00
26192;BME280;13935;55.672;37.764;2023-02-28T03:24:47;100262.13;;;-6.18;100.00
26192;BME280;13935;55.672;37.764;2023-02-28T03:26:24;100263.72;;;-6.32;100.00
26192;BME280;13935;55.672;37.764;2023-02-28T03:27:49;100264.81;;;-6.18;100.00
26192;BME280;13935;55.672;37.764;2023-02-28T03:29:20;100263.72;;;-6.27;100.00
26192;BME280;13935;55.672;37.764;2023-02-28T03:36:02;100245.44;;;-6.25;100.00
26192;BME280;13935;55.672;37.764;2023-02-28T03:37:18;100240.31;;;-6.12;100.00
26192;BME280;13935;55.672;37.764;2023-02-28T03:38:58;100239.50;;;-6.22;100.00
26192;BME280;13935;55.672;37.764;2023-02-28T03:40:19;100238.97;;;-6.19;100.00
26192;BME280;13935;55.672;37.764;2023-02-28T03:41:35;100236.00;;;-6.13;100.00
26192;BME280;13935;55.672;37.764;2023-02-28T03:42:53;100232.25;;;-6.07;100.00
26192;BME280;13935;55.672;37.764;2023-02-28T03:44:14;100223.91;;;-6.20;100.00
26192;BME280;13935;55.672;37.764;2023-02-28T03:45:33;100226.06;;;-6.22;100.00
26192;BME280;13935;55.672;37.764;2023-02-28T03:46:53;100217.97;;;-6.22;100.00
26192;BME280;13935;55.672;37.764;2023-02-28T03:49:02;100217.47;;;-6.19;100.00
26192;BME280;13935;55.672;37.764;2023-02-28T03:51:20;100217.44;;;-6.09;100.00
26192;BME280;13935;55.672;37.764;2023-02-28T03:52:44;100204.56;;;-6.17;100.00
26192;BME280;13935;55.672;37.764;2023-02-28T03:54:01;100208.84;;;-6.06;100.00
26192;BME280;13935;55.672;37.764;2023-02-28T03:55:13;100209.38;;;-6.09;100.00
26192;BME280;13935;55.672;37.764;2023-02-28T03:56:23;100203.72;;;-6.13;100.00
26192;BME280;13935;55.672;37.764;2023-02-28T03:59:30;100191.09;;;-6.07;100.00
26192;BME280;13935;55.672;37.764;2023-02-28T04:00:45;100192.44;;;-6.15;100.00
26192;BME280;13935;55.672;37.764;2023-02-28T04:01:58;100195.91;;;-6.09;100.00
26192;BME280;13935;55.672;37.764;2023-02-28T04:03:07;100178.69;;;-6.03;100.00
26192;BME280;13935;55.672;37.764;2023-02-28T04:04:17;100186.25;;;-6.05;100.00
26192;BME280;13935;55.672;37.764;2023-02-28T04:05:24;100180.06;;;-6.11;100.00
26192;BME280;13935;55.672;37.764;2023-02-28T04:06:34;100195.13;;;-6.10;100.00
26192;BME280;13935;55.672;37.764;2023-02-28T04:08:07;100185.66;;;-5.97;100.00
26192;BME280;13935;55.672;37.764;2023-02-28T04:09:20;100182.16;;;-5.93;100.00
26192;BME280;13935;55.672;37.764;2023-02-28T04:10:30;100173.03;;;-6.07;100.00
26192;BME280;13935;55.672;37.764;2023-02-28T04:11:45;100171.69;;;-6.04;100.00
26192;BME280;13935;55.672;37.764;2023-02-28T04:13:04;100174.91;;;-5.97;100.00
26192;BME280;13935;55.672;37.764;2023-02-28T04:14:11;100159.03;;;-5.94;100.00
26192;BME280;13935;55.672;37.764;2023-02-28T04:15:21;100160.66;;;-6.03;100.00
26192;BME280;13935;55.672;37.764;2023-02-28T04:16:32;100153.38;;;-5.92;100.00
26192;BME280;13935;55.672;37.764;2023-02-28T04:17:43;100150.44;;;-5.96;100.00
26192;BME280;13935;55.672;37.764;2023-02-28T04:18:53;100144.25;;;-6.01;100.00
26192;BME280;13935;55.672;37.764;2023-02-28T04:19:59;100148.00;;;-6.02;100.00
26192;BME280;13935;55.672;37.764;2023-02-28T04:21:07;100150.41;;;-6.01;100.00
26192;BME280;13935;55.672;37.764;2023-02-28T04:22:10;100150.69;;;-5.87;100.00
26192;BME280;13935;55.672;37.764;2023-02-28T04:26:57;100144.78;;;-5.99;100.00
26192;BME280;13935;55.672;37.764;2023-02-28T04:28:05;100153.38;;;-5.92;100.00
26192;BME280;13935;55.672;37.764;2023-02-28T04:29:12;100155.50;;;-5.84;100.00
26192;BME280;13935;55.672;37.764;2023-02-28T04:30:17;100147.41;;;-5.84;100.00
26192;BME280;13935;55.672;37.764;2023-02-28T04:31:23;100152.56;;;-5.83;100.00
26192;BME280;13935;55.672;37.764;2023-02-28T04:32:34;100159.47;;;-5.72;100.00
26192;BME280;13935;55.672;37.764;2023-02-28T04:33:42;100150.34;;;-5.76;100.00
26192;BME280;13935;55.672;37.764;2023-02-28T04:35:00;100158.66;;;-5.72;100.00
26192;BME280;13935;55.672;37.764;2023-02-28T04:36:09;100151.66;;;-5.73;100.00
26192;BME280;13935;55.672;37.764;2023-02-28T04:37:18;100147.31;;;-5.60;100.00
26192;BME280;13935;55.672;37.764;2023-02-28T04:38:24;100144.13;;;-5.71;100.00
26192;BME280;13935;55.672;37.764;2023-02-28T04:39:30;100146.56;;;-5.75;100.00
26192;BME280;13935;55.672;37.764;2023-02-28T04:40:43;100143.03;;;-5.66;100.00
26192;BME280;13935;55.672;37.764;2023-02-28T04:42:11;100134.13;;;-5.61;100.00
26192;BME280;13935;55.672;37.764;2023-02-28T04:43:24;100138.72;;;-5.71;100.00
26192;BME280;13935;55.672;37.764;2023-02-28T04:44:29;100123.34;;;-5.61;100.00
26192;BME280;13935;55.672;37.764;2023-02-28T04:45:35;100117.69;;;-5.60;100.00
26192;BME280;13935;55.672;37.764;2023-02-28T04:46:38;100127.38;;;-5.59;100.00
26192;BME280;13935;55.672;37.764;2023-02-28T04:47:44;100118.22;;;-5.58;100.00
26192;BME280;13935;55.672;37.764;2023-02-28T04:48:46;100119.28;;;-5.54;100.00
26192;BME280;13935;55.672;37.764;2023-02-28T04:49:48;100123.03;;;-5.55;100.00
26192;BME280;13935;55.672;37.764;2023-02-28T04:50:53;100111.22;;;-5.59;100.00
26192;BME280;13935;55.672;37.764;2023-02-28T04:51:56;100105.28;;;-5.51;100.00
26192;BME280;13935;55.672;37.764;2023-02-28T04:52:58;100107.97;;;-5.51;100.00
26192;BME280;13935;55.672;37.764;2023-02-28T04:54:07;100112.00;;;-5.48;100.00
26192;BME280;13935;55.672;37.764;2023-02-28T04:55:10;100103.09;;;-5.44;100.00
26192;BME280;13935;55.672;37.764;2023-02-28T04:56:15;100107.16;;;-5.56;100.00
26192;BME280;13935;55.672;37.764;2023-02-28T04:57:18;100099.84;;;-5.46;100.00
26192;BME280;13935;55.672;37.764;2023-02-28T04:58:20;100096.84;;;-5.39;100.00
26192;BME280;13935;55.672;37.764;2023-02-28T04:59:25;100092.31;;;-5.44;100.00
26192;BME280;13935;55.672;37.764;2023-02-28T05:00:28;100091.28;;;-5.58;100.00
26192;BME280;13935;55.672;37.764;2023-02-28T05:01:33;100091.25;;;-5.53;100.00
26192;BME280;13935;55.672;37.764;2023-02-28T05:02:35;100089.06;;;-5.46;100.00
26192;BME280;13935;55.672;37.764;2023-02-28T05:03:39;100079.34;;;-5.37;100.00
26192;BME280;13935;55.672;37.764;2023-02-28T05:04:47;100088.53;;;-5.43;100.00
26192;BME280;13935;55.672;37.764;2023-02-28T05:05:52;100080.84;;;-5.21;100.00
26192;BME280;13935;55.672;37.764;2023-02-28T05:06:55;100083.00;;;-5.23;100.00
26192;BME280;13935;55.672;37.764;2023-02-28T05:08:00;100080.25;;;-5.13;100.00
26192;BME280;13935;55.672;37.764;2023-02-28T05:09:03;100095.63;;;-5.13;100.00
26192;BME280;13935;55.672;37.764;2023-02-28T05:10:06;100081.84;;;-5.07;100.00
26192;BME280;13935;55.672;37.764;2023-02-28T05:12:42;100079.91;;;-5.01;100.00
26192;BME280;13935;55.672;37.764;2023-02-28T05:13:46;100074.09;;;-5.18;100.00
26192;BME280;13935;55.672;37.764;2023-02-28T05:14:50;100074.25;;;-5.05;100.00
26192;BME280;13935;55.672;37.764;2023-02-28T05:15:53;100071.75;;;-4.58;100.00
26192;BME280;13935;55.672;37.764;2023-02-28T05:16:58;100070.25;;;-3.71;100.00
26192;BME280;13935;55.672;37.764;2023-02-28T05:18:02;100070.53;;;-2.94;100.00
26192;BME280;13935;55.672;37.764;2023-02-28T05:19:05;100070.56;;;-2.17;97.71
26192;BME280;13935;55.672;37.764;2023-02-28T05:20:13;100063.34;;;-1.81;91.00
26192;BME280;13935;55.672;37.764;2023-02-28T05:21:39;100072.13;;;-0.65;83.98
26192;BME280;13935;55.672;37.764;2023-02-28T05:22:49;100068.50;;;-0.08;75.46
26192;BME280;13935;55.672;37.764;2023-02-28T05:23:59;100064.44;;;0.11;71.28
26192;BME280;13935;55.672;37.764;2023-02-28T05:25:08;100046.84;;;0.56;67.12
26192;BME280;13935;55.672;37.764;2023-02-28T05:26:20;100046.06;;;-0.22;65.27
26192;BME280;13935;55.672;37.764;2023-02-28T05:27:25;100034.59;;;-1.07;68.21
26192;BME280;13935;55.672;37.764;2023-02-28T05:28:32;100022.56;;;-1.49;70.89
26192;BME280;13935;55.672;37.764;2023-02-28T05:29:51;100027.72;;;-1.88;73.48
26192;BME280;13935;55.672;37.764;2023-02-28T05:31:00;100025.78;;;-2.41;75.01
26192;BME280;13935;55.672;37.764;2023-02-28T05:32:06;100017.22;;;-2.62;77.62
26192;BME280;13935;55.672;37.764;2023-02-28T05:33:14;100018.09;;;-2.66;78.88
26192;BME280;13935;55.672;37.764;2023-02-28T05:34:24;100015.03;;;-2.91;80.98
26192;BME280;13935;55.672;37.764;2023-02-28T05:35:32;100010.63;;;-2.87;82.63
26192;BME280;13935;55.672;37.764;2023-02-28T05:36:37;100013.41;;;-2.92;82.44
26192;BME280;13935;55.672;37.764;2023-02-28T05:37:53;100004.75;;;-3.08;83.17
26192;BME280;13935;55.672;37.764;2023-02-28T05:39:00;100010.25;;;-3.13;84.19
26192;BME280;13935;55.672;37.764;2023-02-28T05:40:11;99997.06;;;-3.19;84.37
26192;BME280;13935;55.672;37.764;2023-02-28T05:41:18;99999.28;;;-3.21;85.14
26192;BME280;13935;55.672;37.764;2023-02-28T05:42:31;99996.44;;;-3.30;85.71
26192;BME280;13935;55.672;37.764;2023-02-28T05:43:47;99997.97;;;-3.24;85.27
26192;BME280;13935;55.672;37.764;2023-02-28T05:44:51;99996.44;;;-3.30;85.03
26192;BME280;13935;55.672;37.764;2023-02-28T05:45:56;99989.22;;;-3.34;84.97
26192;BME280;13935;55.672;37.764;2023-02-28T05:47:01;99994.63;;;-3.34;85.21
26192;BME280;13935;55.672;37.764;2023-02-28T05:48:09;99977.88;;;-3.36;85.36
26192;BME280;13935;55.672;37.764;2023-02-28T05:49:17;99984.47;;;-3.42;85.70
26192;BME280;13935;55.672;37.764;2023-02-28T05:50:22;99973.44;;;-3.64;86.39
26192;BME280;13935;55.672;37.764;2023-02-28T05:51:41;99977.53;;;-3.48;86.85
26192;BME280;13935;55.672;37.764;2023-02-28T05:52:51;99973.81;;;-3.52;86.94
26192;BME280;13935;55.672;37.764;2023-02-28T05:54:01;99982.25;;;-3.58;86.34
26192;BME280;13935;55.672;37.764;2023-02-28T05:55:07;99968.25;;;-3.60;86.82
26192;BME280;13935;55.672;37.764;2023-02-28T05:56:14;99979.22;;;-3.52;87.59
26192;BME280;13935;55.672;37.764;2023-02-28T05:57:24;99974.91;;;-3.53;87.70
26192;BME280;13935;55.672;37.764;2023-02-28T05:58:46;99967.44;;;-3.61;87.86
26192;BME280;13935;55.672;37.764;2023-02-28T05:59:57;99968.25;;;-3.60;86.83
26192;BME280;13935;55.672;37.764;2023-02-28T06:01:33;99969.94;;;-3.46;87.02
26192;BME280;13935;55.672;37.764;2023-02-28T06:02:40;99964.00;;;-3.48;86.81
26192;BME280;13935;55.672;37.764;2023-02-28T06:04:09;99962.91;;;-3.47;85.91
26192;BME280;13935;55.672;37.764;2023-02-28T06:05:27;99967.31;;;-3.51;88.60
26192;BME280;13935;55.672;37.764;2023-02-28T06:06:30;99966.84;;;-3.40;86.63
26192;BME280;13935;55.672;37.764;2023-02-28T06:08:09;99965.94;;;-3.49;89.38
26192;BME280;13935;55.672;37.764;2023-02-28T06:09:13;99967.16;;;-3.41;86.79
26192;BME280;13935;55.672;37.764;2023-02-28T06:10:18;99953.56;;;-3.36;85.74
26192;BME280;13935;55.672;37.764;2023-02-28T06:11:22;99950.19;;;-3.28;84.47
26192;BME280;13935;55.672;37.764;2023-02-28T06:12:32;99944.91;;;-3.20;84.44
26192;BME280;13935;55.672;37.764;2023-02-28T06:13:43;99934.81;;;-3.14;84.19
26192;BME280;13935;55.672;37.764;2023-02-28T06:14:51;99959.59;;;-3.26;82.91
26192;BME280;13935;55.672;37.764;2023-02-28T06:15:55;99947.03;;;-3.17;82.77
26192;BME280;13935;55.672;37.764;2023-02-28T06:17:02;99947.13;;;-3.40;82.68
26192;BME280;13935;55.672;37.764;2023-02-28T06:18:07;99949.19;;;-3.32;83.35
26192;BME280;13935;55.672;37.764;2023-02-28T06:19:13;99931.78;;;-3.26;83.88
26192;BME280;13935;55.672;37.764;2023-02-28T06:20:20;99922.59;;;-3.44;83.36
26192;BME280;13935;55.672;37.764;2023-02-28T06:21:29;99908.78;;;-3.42;83.09
26192;BME280;13935;55.672;37.764;2023-02-28T06:22:38;99902.09;;;-3.31;83.27
26192;BME280;13935;55.672;37.764;2023-02-28T06:23:44;99902.09;;;-3.31;82.76
26192;BME280;13935;55.672;37.764;2023-02-28T06:24:50;99901.91;;;-3.35;83.47
26192;BME280;13935;55.672;37.764;2023-02-28T06:25:58;99903.47;;;-3.65;83.39
26192;BME280;13935;55.672;37.764;2023-02-28T06:27:02;99901.94;;;-3.53;84.25
26192;BME280;13935;55.672;37.764;2023-02-28T06:28:08;99902.28;;;-3.41;84.85
26192;BME280;13935;55.672;37.764;2023-02-28T06:29:19;99894.81;;;-3.62;84.84
26192;BME280;13935;55.672;37.764;2023-02-28T06:30:23;99893.19;;;-3.45;84.83
26192;BME280;13935;55.672;37.764;2023-02-28T06:31:28;99897.28;;;-3.48;84.04
26192;BME280;13935;55.672;37.764;2023-02-28T06:32:32;99902.50;;;-3.56;84.75
26192;BME280;13935;55.672;37.764;2023-02-28T06:33:39;99898.72;;;-3.37;84.17
26192;BME280;13935;55.672;37.764;2023-02-28T06:34:45;99898.41;;;-3.35;84.10
26192;BME280;13935;55.672;37.764;2023-02-28T06:35:54;99895.03;;;-3.27;83.16
26192;BME280;13935;55.672;37.764;2023-02-28T06:36:58;99894.31;;;-3.33;83.23
26192;BME280;13935;55.672;37.764;2023-02-28T06:38:08;99885.63;;;-3.16;82.82
26192;BME280;13935;55.672;37.764;2023-02-28T06:39:14;99883.81;;;-3.21;82.68
26192;BME280;13935;55.672;37.764;2023-02-28T06:40:19;99881.16;;;-3.07;82.44
26192;BME280;13935;55.672;37.764;2023-02-28T06:41:25;99872.44;;;-2.91;81.92
26192;BME280;13935;55.672;37.764;2023-02-28T06:42:32;99880.59;;;-2.78;81.16
26192;BME280;13935;55.672;37.764;2023-02-28T06:43:38;99876.78;;;-2.63;80.79
26192;BME280;13935;55.672;37.764;2023-02-28T06:44:42;99885.00;;;-2.28;79.03
26192;BME280;13935;55.672;37.764;2023-02-28T06:45:49;99878.38;;;-2.35;77.26
26192;BME280;13935;55.672;37.764;2023-02-28T06:46:59;99896.59;;;-2.01;77.12
26192;BME280;13935;55.672;37.764;2023-02-28T06:48:02;99902.88;;;-1.92;75.15
26192;BME280;13935;55.672;37.764;2023-02-28T06:49:18;99889.13;;;-1.95;74.03
26192;BME280;13935;55.672;37.764;2023-02-28T06:50:22;99890.94;;;-1.91;74.47
26192;BME280;13935;55.672;37.764;2023-02-28T06:51:35;99892.63;;;-1.81;75.40
26192;BME280;13935;55.672;37.764;2023-02-28T06:52:59;99883.66;;;-1.68;73.90
26192;BME280;13935;55.672;37.764;2023-02-28T06:54:06;99880.88;;;-1.55;73.49
26192;BME280;13935;55.672;37.764;2023-02-28T06:55:14;99872.25;;;-1.35;72.11
26192;BME280;13935;55.672;37.764;2023-02-28T06:56:24;99872.06;;;-1.39;71.28
26192;BME280;13935;55.672;37.764;2023-02-28T06:57:30;99856.75;;;-1.43;72.39
26192;BME280;13935;55.672;37.764;2023-02-28T06:58:37;99855.56;;;-1.29;71.55
26192;BME280;13935;55.672;37.764;2023-02-28T06:59:41;99846.97;;;-1.52;70.64
26192;BME280;13935;55.672;37.764;2023-02-28T07:00:54;99831.41;;;-1.39;71.84
26192;BME280;13935;55.672;37.764;2023-02-28T07:01:59;99840.09;;;-1.28;70.72
26192;BME280;13935;55.672;37.764;2023-02-28T07:03:05;99833.31;;;-1.39;70.69
26192;BME280;13935;55.672;37.764;2023-02-28T07:04:13;99833.69;;;-1.32;70.39
26192;BME280;13935;55.672;37.764;2023-02-28T07:05:19;99829.44;;;-1.46;70.33
26192;BME280;13935;55.672;37.764;2023-02-28T07:06:23;99820.88;;;-1.10;70.75
26192;BME280;13935;55.672;37.764;2023-02-28T07:07:26;99821.09;;;-0.98;69.80
26192;BME280;13935;55.672;37.764;2023-02-28T07:08:33;99830.56;;;-1.17;69.08
26192;BME280;13935;55.672;37.764;2023-02-28T07:09:44;99826.97;;;-0.66;69.18
26192;BME280;13935;55.672;37.764;2023-02-28T07:11:01;99818.28;;;-0.84;69.33
26192;BME280;13935;55.672;37.764;2023-02-28T07:12:56;99816.06;;;-0.82;68.37
26192;BME280;13935;55.672;37.764;2023-02-28T07:56:56;99727.19;;;-0.52;83.28
26192;BME280;13935;55.672;37.764;2023-02-28T07:58:05;99731.94;;;-0.57;84.42
26192;BME280;13935;55.672;37.764;2023-02-28T07:59:11;99740.16;;;-0.23;83.57
26192;BME280;13935;55.672;37.764;2023-02-28T08:00:20;99735.81;;;-0.33;83.61
26192;BME280;13935;55.672;37.764;2023-02-28T08:01:31;99732.94;;;-0.03;83.50
26192;BME280;13935;55.672;37.764;2023-02-28T08:02:44;99720.16;;;0.69;82.23
26192;BME280;13935;55.672;37.764;2023-02-28T08:03:52;99723.31;;;0.79;79.05
26192;BME280;13935;55.672;37.764;2023-02-28T08:05:02;99735.22;;;1.04;77.00
26192;BME280;13935;55.672;37.764;2023-02-28T08:06:11;99722.22;;;0.72;75.49
26192;BME280;13935;55.672;37.764;2023-02-28T08:07:23;99730.28;;;1.26;74.72
26192;BME280;13935;55.672;37.764;2023-02-28T08:08:32;99722.31;;;0.92;73.49
26192;BME280;13935;55.672;37.764;2023-02-28T08:09:41;99722.16;;;0.89;75.47
26192;BME280;13935;55.672;37.764;2023-02-28T08:10:55;99717.06;;;0.79;75.50
26192;BME280;13935;55.672;37.764;2023-02-28T08:12:02;99718.03;;;0.83;75.98
26192;BME280;13935;55.672;37.764;2023-02-28T08:13:15;99717.34;;;0.86;76.01
26192;BME280;13935;55.672;37.764;2023-02-28T08:14:26;99709.22;;;0.40;76.20
26192;BME280;13935;55.672;37.764;2023-02-28T08:15:34;99711.59;;;0.42;77.03
26192;BME280;13935;55.672;37.764;2023-02-28T08:16:44;99715.09;;;0.51;79.75
26192;BME280;13935;55.672;37.764;2023-02-28T08:17:54;99710.31;;;0.48;80.18
26192;BME280;13935;55.672;37.764;2023-02-28T08:19:52;99704.97;;;0.60;80.39
26192;BME280;13935;55.672;37.764;2023-02-28T08:20:55;99702.47;;;0.46;80.67
26192;BME280;13935;55.672;37.764;2023-02-28T08:23:49;99695.13;;;0.38;80.89
26192;BME280;13935;55.672;37.764;2023-02-28T08:25:35;99696.88;;;0.43;80.32
26192;BME280;13935;55.672;37.764;2023-02-28T08:26:44;99686.09;;;0.63;81.52
26192;BME280;13935;55.672;37.764;2023-02-28T08:27:52;99684.44;;;0.33;80.45
26192;BME280;13935;55.672;37.764;2023-02-28T08:29:01;99677.00;;;0.51;79.63
26192;BME280;13935;55.672;37.764;2023-02-28T08:30:18;99673.00;;;0.48;78.93
26192;BME280;13935;55.672;37.764;2023-02-28T08:31:38;99668.53;;;0.52;79.25
26192;BME280;13935;55.672;37.764;2023-02-28T08:42:18;99640.25;;;1.43;76.54
26192;BME280;13935;55.672;37.764;2023-02-28T08:44:14;99637.22;;;1.44;73.29
26192;BME280;13935;55.672;37.764;2023-02-28T08:45:51;99650.88;;;1.16;72.93
26192;BME280;13935;55.672;37.764;2023-02-28T08:48:06;99655.53;;;0.95;75.29
26192;BME280;13935;55.672;37.764;2023-02-28T08:50:00;99680.84;;;0.87;76.18
26192;BME280;13935;55.672;37.764;2023-02-28T08:51:11;99685.66;;;0.90;77.94
26192;BME280;13935;55.672;37.764;2023-02-28T08:52:20;99674.81;;;0.73;79.97
26192;BME280;13935;55.672;37.764;2023-02-28T08:53:41;99681.47;;;0.55;80.15
26192;BME280;13935;55.672;37.764;2023-02-28T08:55:28;99690.53;;;0.76;82.96
26192;BME280;13935;55.672;37.764;2023-02-28T08:56:39;99688.53;;;0.48;81.68
26192;BME280;13935;55.672;37.764;2023-02-28T08:57:46;99692.16;;;0.60;82.03
26192;BME280;13935;55.672;37.764;2023-02-28T08:58:55;99686.09;;;0.63;81.27
26192;BME280;13935;55.672;37.764;2023-02-28T09:05:31;99677.47;;;-0.02;89.33
26192;BME280;13935;55.672;37.764;2023-02-28T09:06:34;99676.19;;;-0.04;90.78
26192;BME280;13935;55.672;37.764;2023-02-28T09:09:51;99665.66;;;-0.14;94.46
26192;BME280;13935;55.672;37.764;2023-02-28T09:11:06;99665.81;;;-0.10;95.30
26192;BME280;13935;55.672;37.764;2023-02-28T09:12:25;99653.13;;;0.10;95.42
26192;BME280;13935;55.672;37.764;2023-02-28T09:13:30;99657.28;;;0.16;94.87
26192;BME280;13935;55.672;37.764;2023-02-28T09:14:40;99652.81;;;0.12;94.72
26192;BME280;13935;55.672;37.764;2023-02-28T09:15:49;99633.66;;;0.00;95.11
26192;BME280;13935;55.672;37.764;2023-02-28T09:17:00;99637.31;;;0.12;94.62
26192;BME280;13935;55.672;37.764;2023-02-28T09:18:27;99630.75;;;0.13;94.67
26192;BME280;13935;55.672;37.764;2023-02-28T09:19:39;99616.50;;;0.16;94.47
26192;BME280;13935;55.672;37.764;2023-02-28T09:20:54;99615.28;;;-0.03;93.86
26192;BME280;13935;55.672;37.764;2023-02-28T09:22:05;99611.41;;;0.06;94.59
26192;BME280;13935;55.672;37.764;2023-02-28T09:23:14;99615.03;;;0.19;94.28
26192;BME280;13935;55.672;37.764;2023-02-28T09:24:25;99599.53;;;0.19;94.41
26192;BME280;13935;55.672;37.764;2023-02-28T09:25:54;99596.59;;;0.33;93.54
26192;BME280;13935;55.672;37.764;2023-02-28T09:27:13;99604.41;;;0.34;93.17
26192;BME280;13935;55.672;37.764;2023-02-28T09:28:26;99610.34;;;0.36;93.79
26192;BME280;13935;55.672;37.764;2023-02-28T09:29:37;99603.50;;;0.30;94.48
26192;BME280;13935;55.672;37.764;2023-02-28T09:30:48;99608.59;;;0.40;93.36
26192;BME280;13935;55.672;37.764;2023-02-28T09:31:55;99583.97;;;0.28;93.62
26192;BME280;13935;55.672;37.764;2023-02-28T09:33:04;99595.00;;;0.40;92.83
26192;BME280;13935;55.672;37.764;2023-02-28T09:34:16;99588.97;;;0.26;95.30
26192;BME280;13935;55.672;37.764;2023-02-28T09:42:45;99612.91;;;-0.04;98.40
26192;BME280;13935;55.672;37.764;2023-02-28T09:43:56;99614.44;;;0.13;99.69
26192;BME280;13935;55.672;37.764;2023-02-28T09:45:28;99607.44;;;0.41;98.84
26192;BME280;13935;55.672;37.764;2023-02-28T09:46:44;99604.16;;;0.27;98.51
26192;BME280;13935;55.672;37.764;2023-02-28T09:47:52;99604.59;;;0.29;98.36
26192;BME280;13935;55.672;37.764;2023-02-28T09:49:02;99606.63;;;0.12;99.92
26192;BME280;13935;55.672;37.764;2023-02-28T09:52:57;99607.63;;;0.36;99.61
26192;BME280;13935;55.672;37.764;2023-02-28T09:54:08;99595.41;;;0.13;99.56
26192;BME280;13935;55.672;37.764;2023-02-28T09:55:40;99595.25;;;0.47;97.83
26192;BME280;13935;55.672;37.764;2023-02-28T09:57:23;99585.66;;;0.12;99.58
26192;BME280;13935;55.672;37.764;2023-02-28T10:03:25;99570.28;;;0.16;100.00
26192;BME280;13935;55.672;37.764;2023-02-28T10:04:48;99585.31;;;0.14;100.00
26192;BME280;13935;55.672;37.764;2023-02-28T10:11:07;99567.03;;;-0.14;100.00
26192;BME280;13935;55.672;37.764;2023-02-28T10:12:14;99567.94;;;0.06;100.00
26192;BME280;13935;55.672;37.764;2023-02-28T10:13:36;99577.72;;;0.36;100.00
26192;BME280;13935;55.672;37.764;2023-02-28T10:14:47;99573.09;;;0.37;100.00
26192;BME280;13935;55.672;37.764;2023-02-28T10:16:01;99566.69;;;0.33;100.00
26192;BME280;13935;55.672;37.764;2023-02-28T10:17:26;99567.25;;;0.47;100.00